sensor_id;sensor_type;location;lat;lon;timestamp;P1;durP1;ratioP1;P2;durP2;ratioP2
54269;SDS011;40181;51.560;13.000;2023-08-17T00:01:32;2.58;;;1.42;;
54269;SDS011;40181;51.560;13.000;2023-08-17T00:04:01;2.25;;;1.67;;
54269;SDS011;40181;51.560;13.000;2023-08-17T00:06:31;1.90;;;1.33;;
54269;SDS011;40181;51.560;13.000;2023-08-17T00:09:00;2.90;;;2.03;;
54269;SDS011;40181;51.560;13.000;2023-08-17T00:11:29;2.42;;;1.70;;
54269;SDS011;40181;51.560;13.000;2023-08-17T00:14:01;2.33;;;1.40;;
54269;SDS011;40181;51.560;13.000;2023-08-17T00:16:31;1.83;;;1.08;;
54269;SDS011;40181;51.560;13.000;2023-08-17T00:19:00;3.07;;;1.80;;
54269;SDS011;40181;51.560;13.000;2023-08-17T00:21:29;2.15;;;1.42;;
54269;SDS011;40181;51.560;13.000;2023-08-17T00:23:59;3.25;;;1.88;;
54269;SDS011;40181;51.560;13.000;2023-08-17T00:26:28;3.70;;;1.58;;
54269;SDS011;40181;51.560;13.000;2023-08-17T00:29:00;2.00;;;1.65;;
54269;SDS011;40181;51.560;13.000;2023-08-17T00:31:29;2.60;;;1.67;;
54269;SDS011;40181;51.560;13.000;2023-08-17T00:33:58;3.40;;;1.60;;
54269;SDS011;40181;51.560;13.000;2023-08-17T00:36:27;5.05;;;2.13;;
54269;SDS011;40181;51.560;13.000;2023-08-17T00:38:57;1.80;;;1.40;;
54269;SDS011;40181;51.560;13.000;2023-08-17T00:41:26;2.13;;;1.55;;
54269;SDS011;40181;51.560;13.000;2023-08-17T00:43:55;2.73;;;1.83;;
54269;SDS011;40181;51.560;13.000;2023-08-17T00:46:27;1.90;;;1.40;;
54269;SDS011;40181;51.560;13.000;2023-08-17T00:48:57;2.33;;;1.23;;
54269;SDS011;40181;51.560;13.000;2023-08-17T00:51:27;1.80;;;1.40;;
54269;SDS011;40181;51.560;13.000;2023-08-17T00:53:57;1.93;;;1.70;;
54269;SDS011;40181;51.560;13.000;2023-08-17T00:56:27;3.45;;;1.92;;
54269;SDS011;40181;51.560;13.000;2023-08-17T00:58:57;1.83;;;1.27;;
54269;SDS011;40181;51.560;13.000;2023-08-17T01:01:29;3.45;;;1.30;;
54269;SDS011;40181;51.560;13.000;2023-08-17T01:03:59;1.30;;;1.10;;
54269;SDS011;40181;51.560;13.000;2023-08-17T01:06:28;2.67;;;1.42;;
54269;SDS011;40181;51.560;13.000;2023-08-17T01:08:57;2.40;;;1.40;;
54269;SDS011;40181;51.560;13.000;2023-08-17T01:11:29;3.65;;;1.95;;
54269;SDS011;40181;51.560;13.000;2023-08-17T01:14:05;1.33;;;1.00;;
54269;SDS011;40181;51.560;13.000;2023-08-17T01:16:44;2.58;;;1.40;;
54269;SDS011;40181;51.560;13.000;2023-08-17T01:19:22;2.00;;;1.38;;
54269;SDS011;40181;51.560;13.000;2023-08-17T01:21:57;4.35;;;1.58;;
54269;SDS011;40181;51.560;13.000;2023-08-17T01:24:35;1.83;;;1.25;;
54269;SDS011;40181;51.560;13.000;2023-08-17T01:27:04;2.92;;;1.45;;
54269;SDS011;40181;51.560;13.000;2023-08-17T01:29:33;3.88;;;1.63;;
54269;SDS011;40181;51.560;13.000;2023-08-17T01:32:03;1.92;;;1.65;;
54269;SDS011;40181;51.560;13.000;2023-08-17T01:34:41;2.28;;;1.38;;
54269;SDS011;40181;51.560;13.000;2023-08-17T01:37:17;1.35;;;1.05;;
54269;SDS011;40181;51.560;13.000;2023-08-17T01:39:52;1.55;;;1.23;;
54269;SDS011;40181;51.560;13.000;2023-08-17T01:42:25;1.05;;;0.93;;
54269;SDS011;40181;51.560;13.000;2023-08-17T01:44:55;1.58;;;0.98;;
54269;SDS011;40181;51.560;13.000;2023-08-17T01:47:25;1.80;;;1.35;;
54269;SDS011;40181;51.560;13.000;2023-08-17T01:49:54;2.08;;;1.65;;
54269;SDS011;40181;51.560;13.000;2023-08-17T01:52:25;2.53;;;1.52;;
54269;SDS011;40181;51.560;13.000;2023-08-17T01:54:59;1.58;;;1.33;;
54269;SDS011;40181;51.560;13.000;2023-08-17T01:57:28;2.42;;;1.17;;
54269;SDS011;40181;51.560;13.000;2023-08-17T01:59:57;3.75;;;1.70;;
54269;SDS011;40181;51.560;13.000;2023-08-17T02:02:27;2.47;;;1.50;;
54269;SDS011;40181;51.560;13.000;2023-08-17T02:04:56;2.28;;;1.50;;
54269;SDS011;40181;51.560;13.000;2023-08-17T02:07:25;1.77;;;1.20;;
54269;SDS011;40181;51.560;13.000;2023-08-17T02:09:54;4.55;;;1.77;;
54269;SDS011;40181;51.560;13.000;2023-08-17T02:12:39;3.95;;;1.63;;
54269;SDS011;40181;51.560;13.000;2023-08-17T02:15:08;1.73;;;1.40;;
54269;SDS011;40181;51.560;13.000;2023-08-17T02:17:38;2.97;;;1.02;;
54269;SDS011;40181;51.560;13.000;2023-08-17T02:20:08;2.05;;;1.48;;
54269;SDS011;40181;51.560;13.000;2023-08-17T02:22:39;1.95;;;1.20;;
54269;SDS011;40181;51.560;13.000;2023-08-17T02:25:11;1.75;;;1.40;;
54269;SDS011;40181;51.560;13.000;2023-08-17T02:27:40;1.58;;;1.15;;
54269;SDS011;40181;51.560;13.000;2023-08-17T02:30:09;2.15;;;1.50;;
54269;SDS011;40181;51.560;13.000;2023-08-17T02:32:40;1.73;;;1.40;;
54269;SDS011;40181;51.560;13.000;2023-08-17T02:35:10;2.38;;;1.33;;
54269;SDS011;40181;51.560;13.000;2023-08-17T02:37:39;3.60;;;1.60;;
54269;SDS011;40181;51.560;13.000;2023-08-17T02:40:11;2.00;;;1.20;;
54269;SDS011;40181;51.560;13.000;2023-08-17T02:42:40;1.35;;;0.95;;
54269;SDS011;40181;51.560;13.000;2023-08-17T02:45:09;2.05;;;1.38;;
54269;SDS011;40181;51.560;13.000;2023-08-17T02:47:38;3.85;;;1.73;;
54269;SDS011;40181;51.560;13.000;2023-08-17T02:50:08;2.58;;;1.42;;
54269;SDS011;40181;51.560;13.000;2023-08-17T02:52:38;2.33;;;1.20;;
54269;SDS011;40181;51.560;13.000;2023-08-17T02:55:08;4.85;;;1.48;;
54269;SDS011;40181;51.560;13.000;2023-08-17T02:57:39;1.85;;;1.48;;
54269;SDS011;40181;51.560;13.000;2023-08-17T03:00:09;1.77;;;1.13;;
54269;SDS011;40181;51.560;13.000;2023-08-17T03:02:40;5.60;;;1.50;;
54269;SDS011;40181;51.560;13.000;2023-08-17T03:05:09;1.05;;;0.90;;
54269;SDS011;40181;51.560;13.000;2023-08-17T03:07:38;1.75;;;1.23;;
54269;SDS011;40181;51.560;13.000;2023-08-17T03:10:07;2.55;;;1.67;;
54269;SDS011;40181;51.560;13.000;2023-08-17T03:12:39;7.70;;;1.55;;
54269;SDS011;40181;51.560;13.000;2023-08-17T03:15:08;1.27;;;1.13;;
54269;SDS011;40181;51.560;13.000;2023-08-17T03:17:38;1.60;;;1.23;;
54269;SDS011;40181;51.560;13.000;2023-08-17T03:20:07;1.58;;;1.23;;
54269;SDS011;40181;51.560;13.000;2023-08-17T03:22:37;2.35;;;1.35;;
54269;SDS011;40181;51.560;13.000;2023-08-17T03:25:07;4.60;;;1.45;;
54269;SDS011;40181;51.560;13.000;2023-08-17T03:27:40;3.28;;;1.70;;
54269;SDS011;40181;51.560;13.000;2023-08-17T03:30:09;3.15;;;1.35;;
54269;SDS011;40181;51.560;13.000;2023-08-17T03:32:38;1.40;;;1.10;;
54269;SDS011;40181;51.560;13.000;2023-08-17T03:35:08;2.47;;;1.92;;
54269;SDS011;40181;51.560;13.000;2023-08-17T03:37:38;2.65;;;2.00;;
54269;SDS011;40181;51.560;13.000;2023-08-17T03:40:07;1.90;;;1.20;;
54269;SDS011;40181;51.560;13.000;2023-08-17T03:42:40;4.25;;;1.80;;
54269;SDS011;40181;51.560;13.000;2023-08-17T03:45:09;1.30;;;1.05;;
54269;SDS011;40181;51.560;13.000;2023-08-17T03:47:38;2.30;;;1.30;;
54269;SDS011;40181;51.560;13.000;2023-08-17T03:50:08;2.25;;;1.50;;
54269;SDS011;40181;51.560;13.000;2023-08-17T03:55:07;1.40;;;1.25;;
54269;SDS011;40181;51.560;13.000;2023-08-17T03:57:39;1.73;;;1.58;;
54269;SDS011;40181;51.560;13.000;2023-08-17T04:00:09;3.40;;;2.05;;
54269;SDS011;40181;51.560;13.000;2023-08-17T04:05:08;3.58;;;2.05;;
54269;SDS011;40181;51.560;13.000;2023-08-17T04:07:38;2.72;;;2.15;;
54269;SDS011;40181;51.560;13.000;2023-08-17T04:10:07;2.30;;;1.77;;
54269;SDS011;40181;51.560;13.000;2023-08-17T04:12:40;7.97;;;3.00;;
54269;SDS011;40181;51.560;13.000;2023-08-17T04:15:09;3.25;;;2.00;;
54269;SDS011;40181;51.560;13.000;2023-08-17T04:17:38;3.08;;;1.80;;
54269;SDS011;40181;51.560;13.000;2023-08-17T04:20:08;2.80;;;2.08;;
54269;SDS011;40181;51.560;13.000;2023-08-17T04:22:38;3.42;;;2.22;;
54269;SDS011;40181;51.560;13.000;2023-08-17T04:25:08;5.53;;;2.78;;
54269;SDS011;40181;51.560;13.000;2023-08-17T04:27:39;6.90;;;2.70;;
54269;SDS011;40181;51.560;13.000;2023-08-17T04:30:09;4.95;;;2.63;;
54269;SDS011;40181;51.560;13.000;2023-08-17T04:32:40;4.93;;;1.98;;
54269;SDS011;40181;51.560;13.000;2023-08-17T04:35:09;2.20;;;1.58;;
54269;SDS011;40181;51.560;13.000;2023-08-17T04:37:38;2.05;;;1.38;;
54269;SDS011;40181;51.560;13.000;2023-08-17T04:40:07;4.78;;;2.65;;
54269;SDS011;40181;51.560;13.000;2023-08-17T04:42:40;3.45;;;2.40;;
54269;SDS011;40181;51.560;13.000;2023-08-17T04:45:09;3.22;;;2.00;;
54269;SDS011;40181;51.560;13.000;2023-08-17T04:47:38;3.25;;;2.08;;
54269;SDS011;40181;51.560;13.000;2023-08-17T04:50:08;3.83;;;2.20;;
54269;SDS011;40181;51.560;13.000;2023-08-17T04:52:41;4.40;;;2.92;;
54269;SDS011;40181;51.560;13.000;2023-08-17T04:55:10;1.73;;;1.57;;
54269;SDS011;40181;51.560;13.000;2023-08-17T04:57:43;2.17;;;1.58;;
54269;SDS011;40181;51.560;13.000;2023-08-17T05:00:13;3.38;;;2.45;;
54269;SDS011;40181;51.560;13.000;2023-08-17T05:02:50;3.97;;;1.77;;
54269;SDS011;40181;51.560;13.000;2023-08-17T05:05:19;2.45;;;1.65;;
54269;SDS011;40181;51.560;13.000;2023-08-17T05:07:49;3.25;;;1.90;;
54269;SDS011;40181;51.560;13.000;2023-08-17T05:10:18;2.55;;;1.63;;
54269;SDS011;40181;51.560;13.000;2023-08-17T05:12:50;2.85;;;2.03;;
54269;SDS011;40181;51.560;13.000;2023-08-17T05:15:19;3.40;;;1.65;;
54269;SDS011;40181;51.560;13.000;2023-08-17T05:17:49;3.25;;;1.42;;
54269;SDS011;40181;51.560;13.000;2023-08-17T05:20:18;6.30;;;2.70;;
54269;SDS011;40181;51.560;13.000;2023-08-17T05:22:48;3.53;;;1.65;;
54269;SDS011;40181;51.560;13.000;2023-08-17T05:25:17;2.83;;;2.10;;
54269;SDS011;40181;51.560;13.000;2023-08-17T05:27:46;2.67;;;1.67;;
54269;SDS011;40181;51.560;13.000;2023-08-17T05:30:18;3.05;;;2.03;;
54269;SDS011;40181;51.560;13.000;2023-08-17T05:32:48;3.65;;;1.98;;
54269;SDS011;40181;51.560;13.000;2023-08-17T05:35:17;2.85;;;2.08;;
54269;SDS011;40181;51.560;13.000;2023-08-17T05:37:46;3.10;;;1.65;;
54269;SDS011;40181;51.560;13.000;2023-08-17T05:40:15;3.00;;;1.98;;
54269;SDS011;40181;51.560;13.000;2023-08-17T05:42:45;4.22;;;1.85;;
54269;SDS011;40181;51.560;13.000;2023-08-17T05:45:16;1.70;;;1.25;;
54269;SDS011;40181;51.560;13.000;2023-08-17T05:47:46;4.07;;;1.70;;
54269;SDS011;40181;51.560;13.000;2023-08-17T05:50:15;3.40;;;2.10;;
54269;SDS011;40181;51.560;13.000;2023-08-17T05:52:44;2.38;;;1.60;;
54269;SDS011;40181;51.560;13.000;2023-08-17T05:55:13;2.40;;;1.67;;
54269;SDS011;40181;51.560;13.000;2023-08-17T05:57:42;2.15;;;1.50;;
54269;SDS011;40181;51.560;13.000;2023-08-17T06:00:12;3.45;;;1.73;;
54269;SDS011;40181;51.560;13.000;2023-08-17T06:02:45;2.42;;;1.92;;
54269;SDS011;40181;51.560;13.000;2023-08-17T06:05:16;2.25;;;1.48;;
54269;SDS011;40181;51.560;13.000;2023-08-17T06:07:45;3.05;;;1.80;;
54269;SDS011;40181;51.560;13.000;2023-08-17T06:10:14;2.45;;;1.67;;
54269;SDS011;40181;51.560;13.000;2023-08-17T06:12:44;1.98;;;1.60;;
54269;SDS011;40181;51.560;13.000;2023-08-17T06:15:13;2.85;;;1.88;;
54269;SDS011;40181;51.560;13.000;2023-08-17T06:17:45;3.13;;;1.70;;
54269;SDS011;40181;51.560;13.000;2023-08-17T06:20:15;2.17;;;1.48;;
54269;SDS011;40181;51.560;13.000;2023-08-17T06:22:45;4.53;;;2.00;;
54269;SDS011;40181;51.560;13.000;2023-08-17T06:25:16;3.20;;;1.63;;
54269;SDS011;40181;51.560;13.000;2023-08-17T06:27:46;3.22;;;1.88;;
54269;SDS011;40181;51.560;13.000;2023-08-17T06:30:20;2.88;;;1.80;;
54269;SDS011;40181;51.560;13.000;2023-08-17T06:32:50;3.30;;;2.10;;
54269;SDS011;40181;51.560;13.000;2023-08-17T06:35:19;2.80;;;1.80;;
54269;SDS011;40181;51.560;13.000;2023-08-17T06:37:49;4.10;;;2.33;;
54269;SDS011;40181;51.560;13.000;2023-08-17T06:40:22;3.63;;;2.03;;
54269;SDS011;40181;51.560;13.000;2023-08-17T06:42:52;3.88;;;2.20;;
54269;SDS011;40181;51.560;13.000;2023-08-17T06:45:24;5.78;;;2.30;;
54269;SDS011;40181;51.560;13.000;2023-08-17T06:47:53;3.10;;;2.10;;
54269;SDS011;40181;51.560;13.000;2023-08-17T06:50:22;2.22;;;1.88;;
54269;SDS011;40181;51.560;13.000;2023-08-17T06:52:51;3.27;;;1.90;;
54269;SDS011;40181;51.560;13.000;2023-08-17T06:55:21;5.45;;;2.10;;
54269;SDS011;40181;51.560;13.000;2023-08-17T06:57:50;3.00;;;2.17;;
54269;SDS011;40181;51.560;13.000;2023-08-17T07:00:20;2.57;;;1.73;;
54269;SDS011;40181;51.560;13.000;2023-08-17T07:02:52;7.65;;;2.45;;
54269;SDS011;40181;51.560;13.000;2023-08-17T07:05:21;6.68;;;3.13;;
54269;SDS011;40181;51.560;13.000;2023-08-17T07:07:50;4.10;;;2.08;;
54269;SDS011;40181;51.560;13.000;2023-08-17T07:10:20;2.28;;;1.58;;
54269;SDS011;40181;51.560;13.000;2023-08-17T07:12:49;5.53;;;2.33;;
54269;SDS011;40181;51.560;13.000;2023-08-17T07:15:18;6.03;;;2.75;;
54269;SDS011;40181;51.560;13.000;2023-08-17T07:17:50;3.47;;;2.03;;
54269;SDS011;40181;51.560;13.000;2023-08-17T07:20:19;2.83;;;1.80;;
54269;SDS011;40181;51.560;13.000;2023-08-17T07:22:49;2.60;;;1.90;;
54269;SDS011;40181;51.560;13.000;2023-08-17T07:25:18;5.47;;;2.90;;
54269;SDS011;40181;51.560;13.000;2023-08-17T07:27:47;3.33;;;2.53;;
54269;SDS011;40181;51.560;13.000;2023-08-17T07:30:16;2.63;;;1.98;;
54269;SDS011;40181;51.560;13.000;2023-08-17T07:32:46;3.67;;;2.13;;
54269;SDS011;40181;51.560;13.000;2023-08-17T07:35:17;2.22;;;1.70;;
54269;SDS011;40181;51.560;13.000;2023-08-17T07:37:46;2.80;;;2.03;;
54269;SDS011;40181;51.560;13.000;2023-08-17T07:40:34;2.55;;;1.98;;
54269;SDS011;40181;51.560;13.000;2023-08-17T07:43:04;8.93;;;1.90;;
54269;SDS011;40181;51.560;13.000;2023-08-17T07:45:33;4.38;;;2.40;;
54269;SDS011;40181;51.560;13.000;2023-08-17T07:48:02;3.28;;;2.60;;
54269;SDS011;40181;51.560;13.000;2023-08-17T07:50:32;2.05;;;1.60;;
54269;SDS011;40181;51.560;13.000;2023-08-17T07:53:02;2.75;;;1.80;;
54269;SDS011;40181;51.560;13.000;2023-08-17T07:55:31;4.82;;;2.10;;
54269;SDS011;40181;51.560;13.000;2023-08-17T07:58:03;1.98;;;1.65;;
54269;SDS011;40181;51.560;13.000;2023-08-17T08:00:33;4.10;;;2.22;;
54269;SDS011;40181;51.560;13.000;2023-08-17T08:03:03;3.42;;;2.25;;
54269;SDS011;40181;51.560;13.000;2023-08-17T08:05:32;2.80;;;1.75;;
54269;SDS011;40181;51.560;13.000;2023-08-17T08:08:01;2.33;;;2.03;;
54269;SDS011;40181;51.560;13.000;2023-08-17T08:10:31;5.05;;;2.58;;
54269;SDS011;40181;51.560;13.000;2023-08-17T08:13:03;3.15;;;1.77;;
54269;SDS011;40181;51.560;13.000;2023-08-17T08:15:33;2.33;;;1.98;;
54269;SDS011;40181;51.560;13.000;2023-08-17T08:18:02;4.70;;;2.30;;
54269;SDS011;40181;51.560;13.000;2023-08-17T08:20:32;2.03;;;1.50;;
54269;SDS011;40181;51.560;13.000;2023-08-17T08:23:02;2.67;;;1.90;;
54269;SDS011;40181;51.560;13.000;2023-08-17T08:25:31;2.43;;;1.97;;
54269;SDS011;40181;51.560;13.000;2023-08-17T08:28:03;2.22;;;1.70;;
54269;SDS011;40181;51.560;13.000;2023-08-17T08:30:33;8.30;;;1.85;;
54269;SDS011;40181;51.560;13.000;2023-08-17T08:33:03;6.53;;;1.80;;
54269;SDS011;40181;51.560;13.000;2023-08-17T08:35:32;4.67;;;1.60;;
54269;SDS011;40181;51.560;13.000;2023-08-17T08:38:01;4.15;;;2.10;;
54269;SDS011;40181;51.560;13.000;2023-08-17T08:40:31;2.78;;;1.92;;
54269;SDS011;40181;51.560;13.000;2023-08-17T08:43:03;3.08;;;1.77;;
54269;SDS011;40181;51.560;13.000;2023-08-17T08:45:35;5.88;;;2.28;;
54269;SDS011;40181;51.560;13.000;2023-08-17T08:48:06;3.20;;;2.22;;
54269;SDS011;40181;51.560;13.000;2023-08-17T08:50:39;2.78;;;2.10;;
54269;SDS011;40181;51.560;13.000;2023-08-17T08:53:10;3.33;;;2.22;;
54269;SDS011;40181;51.560;13.000;2023-08-17T08:55:47;2.95;;;1.95;;
54269;SDS011;40181;51.560;13.000;2023-08-17T08:58:20;4.95;;;2.38;;
54269;SDS011;40181;51.560;13.000;2023-08-17T09:00:50;3.50;;;2.72;;
54269;SDS011;40181;51.560;13.000;2023-08-17T09:03:21;4.93;;;2.33;;
54269;SDS011;40181;51.560;13.000;2023-08-17T09:05:51;3.10;;;1.77;;
54269;SDS011;40181;51.560;13.000;2023-08-17T09:08:21;3.50;;;1.93;;
54269;SDS011;40181;51.560;13.000;2023-08-17T09:10:55;1.85;;;1.70;;
54269;SDS011;40181;51.560;13.000;2023-08-17T09:13:25;3.33;;;1.67;;
54269;SDS011;40181;51.560;13.000;2023-08-17T09:15:54;3.35;;;2.03;;
54269;SDS011;40181;51.560;13.000;2023-08-17T09:18:25;3.50;;;2.15;;
54269;SDS011;40181;51.560;13.000;2023-08-17T09:20:54;2.72;;;1.70;;
54269;SDS011;40181;51.560;13.000;2023-08-17T09:23:23;2.80;;;2.00;;
54269;SDS011;40181;51.560;13.000;2023-08-17T09:25:55;6.20;;;2.33;;
54269;SDS011;40181;51.560;13.000;2023-08-17T09:28:25;3.38;;;1.92;;
54269;SDS011;40181;51.560;13.000;2023-08-17T09:30:56;8.52;;;2.55;;
54269;SDS011;40181;51.560;13.000;2023-08-17T09:33:29;3.42;;;2.20;;
54269;SDS011;40181;51.560;13.000;2023-08-17T09:36:00;2.42;;;1.95;;
54269;SDS011;40181;51.560;13.000;2023-08-17T09:38:29;1.98;;;1.70;;
54269;SDS011;40181;51.560;13.000;2023-08-17T09:41:01;3.20;;;2.35;;
54269;SDS011;40181;51.560;13.000;2023-08-17T09:43:31;2.53;;;2.15;;
54269;SDS011;40181;51.560;13.000;2023-08-17T09:46:02;2.17;;;1.90;;
54269;SDS011;40181;51.560;13.000;2023-08-17T09:48:32;7.05;;;3.35;;
54269;SDS011;40181;51.560;13.000;2023-08-17T09:51:02;3.30;;;2.22;;
54269;SDS011;40181;51.560;13.000;2023-08-17T09:53:34;3.28;;;2.53;;
54269;SDS011;40181;51.560;13.000;2023-08-17T09:56:07;3.55;;;2.60;;
54269;SDS011;40181;51.560;13.000;2023-08-17T09:58:38;3.13;;;2.38;;
54269;SDS011;40181;51.560;13.000;2023-08-17T10:01:08;3.92;;;2.97;;
54269;SDS011;40181;51.560;13.000;2023-08-17T10:03:38;2.60;;;1.98;;
54269;SDS011;40181;51.560;13.000;2023-08-17T10:06:16;4.10;;;2.67;;
54269;SDS011;40181;51.560;13.000;2023-08-17T10:08:50;3.40;;;2.35;;
54269;SDS011;40181;51.560;13.000;2023-08-17T10:11:25;4.22;;;2.35;;
54269;SDS011;40181;51.560;13.000;2023-08-17T10:14:00;4.38;;;3.13;;
54269;SDS011;40181;51.560;13.000;2023-08-17T10:16:36;2.63;;;2.13;;
54269;SDS011;40181;51.560;13.000;2023-08-17T10:19:13;6.97;;;2.92;;
54269;SDS011;40181;51.560;13.000;2023-08-17T10:21:53;4.00;;;2.90;;
54269;SDS011;40181;51.560;13.000;2023-08-17T10:24:28;4.10;;;3.10;;
54269;SDS011;40181;51.560;13.000;2023-08-17T10:27:03;5.18;;;2.60;;
54269;SDS011;40181;51.560;13.000;2023-08-17T10:29:34;2.97;;;2.17;;
54269;SDS011;40181;51.560;13.000;2023-08-17T10:32:05;3.65;;;2.08;;
54269;SDS011;40181;51.560;13.000;2023-08-17T10:34:35;2.83;;;2.03;;
54269;SDS011;40181;51.560;13.000;2023-08-17T10:37:05;6.05;;;3.03;;
54269;SDS011;40181;51.560;13.000;2023-08-17T10:39:35;4.10;;;2.78;;
54269;SDS011;40181;51.560;13.000;2023-08-17T10:42:07;5.60;;;2.00;;
54269;SDS011;40181;51.560;13.000;2023-08-17T10:44:43;3.13;;;2.47;;
54269;SDS011;40181;51.560;13.000;2023-08-17T10:47:21;4.53;;;2.55;;
54269;SDS011;40181;51.560;13.000;2023-08-17T10:49:51;4.07;;;2.75;;
54269;SDS011;40181;51.560;13.000;2023-08-17T10:52:28;3.92;;;2.88;;
54269;SDS011;40181;51.560;13.000;2023-08-17T10:54:59;3.38;;;2.30;;
54269;SDS011;40181;51.560;13.000;2023-08-17T10:57:33;3.38;;;2.72;;
54269;SDS011;40181;51.560;13.000;2023-08-17T11:00:05;4.00;;;3.05;;
54269;SDS011;40181;51.560;13.000;2023-08-17T11:02:45;10.32;;;2.78;;
54269;SDS011;40181;51.560;13.000;2023-08-17T11:05:36;6.22;;;2.80;;
54269;SDS011;40181;51.560;13.000;2023-08-17T11:08:20;4.25;;;2.97;;
54269;SDS011;40181;51.560;13.000;2023-08-17T11:10:58;4.45;;;2.47;;
54269;SDS011;40181;51.560;13.000;2023-08-17T11:13:34;4.20;;;2.88;;
54269;SDS011;40181;51.560;13.000;2023-08-17T11:16:06;6.75;;;2.90;;
54269;SDS011;40181;51.560;13.000;2023-08-17T11:18:37;7.70;;;2.35;;
54269;SDS011;40181;51.560;13.000;2023-08-17T11:21:06;5.20;;;2.23;;
54269;SDS011;40181;51.560;13.000;2023-08-17T11:23:37;4.45;;;2.80;;
54269;SDS011;40181;51.560;13.000;2023-08-17T11:26:06;4.53;;;2.30;;
54269;SDS011;40181;51.560;13.000;2023-08-17T11:28:39;2.97;;;2.10;;
54269;SDS011;40181;51.560;13.000;2023-08-17T11:31:10;3.08;;;2.40;;
54269;SDS011;40181;51.560;13.000;2023-08-17T11:33:40;2.35;;;1.85;;
54269;SDS011;40181;51.560;13.000;2023-08-17T11:36:11;2.25;;;1.83;;
54269;SDS011;40181;51.560;13.000;2023-08-17T11:38:41;4.38;;;2.83;;
54269;SDS011;40181;51.560;13.000;2023-08-17T11:41:12;3.38;;;2.50;;
54269;SDS011;40181;51.560;13.000;2023-08-17T11:43:44;3.13;;;2.13;;
54269;SDS011;40181;51.560;13.000;2023-08-17T11:46:14;8.95;;;2.70;;
54269;SDS011;40181;51.560;13.000;2023-08-17T11:48:44;3.47;;;2.42;;
54269;SDS011;40181;51.560;13.000;2023-08-17T11:51:14;3.88;;;2.42;;
54269;SDS011;40181;51.560;13.000;2023-08-17T11:53:43;3.17;;;2.63;;
54269;SDS011;40181;51.560;13.000;2023-08-17T11:56:12;3.03;;;2.22;;
54269;SDS011;40181;51.560;13.000;2023-08-17T11:58:45;2.83;;;2.00;;
54269;SDS011;40181;51.560;13.000;2023-08-17T12:01:15;2.72;;;2.05;;
54269;SDS011;40181;51.560;13.000;2023-08-17T12:03:44;3.65;;;2.55;;
54269;SDS011;40181;51.560;13.000;2023-08-17T12:06:15;3.78;;;2.28;;
54269;SDS011;40181;51.560;13.000;2023-08-17T12:08:45;2.72;;;2.03;;
54269;SDS011;40181;51.560;13.000;2023-08-17T12:11:16;2.60;;;2.00;;
54269;SDS011;40181;51.560;13.000;2023-08-17T12:13:51;3.15;;;2.63;;
54269;SDS011;40181;51.560;13.000;2023-08-17T12:16:21;5.30;;;2.13;;
54269;SDS011;40181;51.560;13.000;2023-08-17T12:18:52;3.17;;;2.15;;
54269;SDS011;40181;51.560;13.000;2023-08-17T12:21:21;4.07;;;2.78;;
54269;SDS011;40181;51.560;13.000;2023-08-17T12:23:51;4.93;;;2.83;;
54269;SDS011;40181;51.560;13.000;2023-08-17T12:26:20;5.03;;;2.50;;
54269;SDS011;40181;51.560;13.000;2023-08-17T12:28:52;5.30;;;2.30;;
54269;SDS011;40181;51.560;13.000;2023-08-17T12:31:22;3.00;;;2.65;;
54269;SDS011;40181;51.560;13.000;2023-08-17T12:33:51;2.67;;;2.23;;
54269;SDS011;40181;51.560;13.000;2023-08-17T12:36:21;2.67;;;2.17;;
54269;SDS011;40181;51.560;13.000;2023-08-17T12:38:50;3.83;;;1.92;;
54269;SDS011;40181;51.560;13.000;2023-08-17T12:41:19;4.07;;;2.90;;
54269;SDS011;40181;51.560;13.000;2023-08-17T12:43:48;4.15;;;2.42;;
54269;SDS011;40181;51.560;13.000;2023-08-17T12:46:21;6.05;;;2.53;;
54269;SDS011;40181;51.560;13.000;2023-08-17T12:48:50;5.18;;;2.40;;
54269;SDS011;40181;51.560;13.000;2023-08-17T12:51:19;3.33;;;2.15;;
54269;SDS011;40181;51.560;13.000;2023-08-17T12:53:49;4.05;;;2.53;;
54269;SDS011;40181;51.560;13.000;2023-08-17T12:56:18;3.53;;;2.35;;
54269;SDS011;40181;51.560;13.000;2023-08-17T12:58:47;3.60;;;2.65;;
54269;SDS011;40181;51.560;13.000;2023-08-17T13:01:16;2.53;;;2.20;;
54269;SDS011;40181;51.560;13.000;2023-08-17T13:03:48;3.15;;;2.50;;
54269;SDS011;40181;51.560;13.000;2023-08-17T13:06:17;2.95;;;2.25;;
54269;SDS011;40181;51.560;13.000;2023-08-17T13:08:46;3.13;;;2.33;;
54269;SDS011;40181;51.560;13.000;2023-08-17T13:11:15;6.28;;;2.53;;
54269;SDS011;40181;51.560;13.000;2023-08-17T13:13:45;2.65;;;2.13;;
54269;SDS011;40181;51.560;13.000;2023-08-17T13:16:14;2.40;;;1.85;;
54269;SDS011;40181;51.560;13.000;2023-08-17T13:18:43;2.60;;;2.10;;
54269;SDS011;40181;51.560;13.000;2023-08-17T13:21:15;4.70;;;3.03;;
54269;SDS011;40181;51.560;13.000;2023-08-17T13:23:45;2.90;;;2.45;;
54269;SDS011;40181;51.560;13.000;2023-08-17T13:26:14;2.90;;;2.35;;
54269;SDS011;40181;51.560;13.000;2023-08-17T13:28:43;2.50;;;1.77;;
54269;SDS011;40181;51.560;13.000;2023-08-17T13:31:12;3.75;;;2.25;;
54269;SDS011;40181;51.560;13.000;2023-08-17T13:33:41;4.05;;;2.25;;
54269;SDS011;40181;51.560;13.000;2023-08-17T13:36:11;3.53;;;2.70;;
54269;SDS011;40181;51.560;13.000;2023-08-17T13:38:43;3.90;;;2.15;;
54269;SDS011;40181;51.560;13.000;2023-08-17T13:41:12;3.67;;;2.50;;
54269;SDS011;40181;51.560;13.000;2023-08-17T13:43:41;3.37;;;2.60;;
54269;SDS011;40181;51.560;13.000;2023-08-17T13:46:11;2.55;;;2.35;;
54269;SDS011;40181;51.560;13.000;2023-08-17T13:48:41;4.65;;;2.72;;
54269;SDS011;40181;51.560;13.000;2023-08-17T13:51:10;2.25;;;2.05;;
54269;SDS011;40181;51.560;13.000;2023-08-17T13:53:41;2.80;;;2.17;;
54269;SDS011;40181;51.560;13.000;2023-08-17T13:56:11;4.72;;;2.60;;
54269;SDS011;40181;51.560;13.000;2023-08-17T13:58:40;4.18;;;2.95;;
54269;SDS011;40181;51.560;13.000;2023-08-17T14:01:09;4.97;;;2.80;;
54269;SDS011;40181;51.560;13.000;2023-08-17T14:03:39;3.80;;;2.88;;
54269;SDS011;40181;51.560;13.000;2023-08-17T14:06:09;3.03;;;2.40;;
54269;SDS011;40181;51.560;13.000;2023-08-17T14:08:38;6.45;;;2.55;;
54269;SDS011;40181;51.560;13.000;2023-08-17T14:11:10;3.97;;;2.90;;
54269;SDS011;40181;51.560;13.000;2023-08-17T14:13:39;4.20;;;2.63;;
54269;SDS011;40181;51.560;13.000;2023-08-17T14:16:08;3.28;;;2.47;;
54269;SDS011;40181;51.560;13.000;2023-08-17T14:18:37;6.43;;;2.20;;
54269;SDS011;40181;51.560;13.000;2023-08-17T14:21:06;4.07;;;2.78;;
54269;SDS011;40181;51.560;13.000;2023-08-17T14:23:36;4.28;;;3.35;;
54269;SDS011;40181;51.560;13.000;2023-08-17T14:26:09;4.40;;;2.58;;
54269;SDS011;40181;51.560;13.000;2023-08-17T14:28:39;3.83;;;2.80;;
54269;SDS011;40181;51.560;13.000;2023-08-17T14:31:08;4.35;;;2.95;;
54269;SDS011;40181;51.560;13.000;2023-08-17T14:33:42;3.88;;;2.90;;
54269;SDS011;40181;51.560;13.000;2023-08-17T14:36:12;3.10;;;2.45;;
54269;SDS011;40181;51.560;13.000;2023-08-17T14:38:42;2.85;;;2.15;;
54269;SDS011;40181;51.560;13.000;2023-08-17T14:41:13;2.78;;;2.47;;
54269;SDS011;40181;51.560;13.000;2023-08-17T14:43:43;4.53;;;2.83;;
54269;SDS011;40181;51.560;13.000;2023-08-17T14:46:12;4.75;;;3.00;;
54269;SDS011;40181;51.560;13.000;2023-08-17T14:48:41;3.78;;;2.58;;
54269;SDS011;40181;51.560;13.000;2023-08-17T14:51:10;3.33;;;2.63;;
54269;SDS011;40181;51.560;13.000;2023-08-17T14:53:39;5.13;;;2.63;;
54269;SDS011;40181;51.560;13.000;2023-08-17T14:56:09;4.68;;;2.65;;
54269;SDS011;40181;51.560;13.000;2023-08-17T14:58:40;2.90;;;2.15;;